createdAt,value
2019-01-04T00:02:00.015Z,-1.46
2019-01-04T00:04:31.681Z,-1.31
2019-01-04T00:07:03.485Z,-1.31
2019-01-04T00:09:32.057Z,-1.28
2019-01-04T00:12:03.680Z,-1.20
2019-01-04T00:14:32.922Z,-1.06
2019-01-04T00:17:04.200Z,-1.05
2019-01-04T00:19:32.737Z,-0.99
2019-01-04T00:22:01.343Z,-0.90
2019-01-04T00:24:30.025Z,-0.85
2019-01-04T00:26:58.620Z,-0.79
2019-01-04T00:29:30.582Z,-0.77
2019-01-04T00:32:01.977Z,-0.82
2019-01-04T00:34:30.640Z,-0.85
2019-01-04T00:36:59.274Z,-0.87
2019-01-04T00:39:27.845Z,-0.84
2019-01-04T00:41:59.463Z,-0.87
2019-01-04T00:44:31.046Z,-0.83
2019-01-04T00:46:59.595Z,-0.84
2019-01-04T00:49:31.041Z,-0.82
2019-01-04T00:51:59.671Z,-0.86
2019-01-04T00:54:31.044Z,-0.77
2019-01-04T00:57:13.778Z,-0.67
2019-01-04T01:00:30.212Z,-0.61
2019-01-04T01:03:19.314Z,-0.66
2019-01-04T01:06:16.464Z,-0.74
2019-01-04T01:09:23.589Z,-0.67
2019-01-04T01:12:05.051Z,-0.66
2019-01-04T01:15:00.858Z,-0.67
2019-01-04T01:17:35.681Z,-0.55
2019-01-04T01:20:21.825Z,-0.60
2019-01-04T01:23:02.341Z,-0.52
2019-01-04T01:25:56.114Z,-0.49
2019-01-04T01:28:51.525Z,-0.54
2019-01-04T01:31:56.411Z,-0.62
2019-01-04T01:34:40.238Z,-0.55
2019-01-04T01:37:33.238Z,-0.49
2019-01-04T01:40:57.084Z,-0.47
2019-01-04T01:43:34.256Z,-0.49
2019-01-04T01:46:42.899Z,-0.57
2019-01-04T01:49:33.828Z,-0.43
2019-01-04T01:52:05.429Z,-0.61
2019-01-04T01:54:33.998Z,-0.60
2019-01-04T01:57:05.308Z,-0.53
2019-01-04T01:59:33.865Z,-0.46
2019-01-04T02:02:02.667Z,-0.39
2019-01-04T02:04:31.225Z,-0.35
2019-01-04T02:06:59.795Z,-0.27
2019-01-04T02:09:28.407Z,-0.21
2019-01-04T02:11:56.962Z,-0.23
2019-01-04T02:14:25.523Z,-0.19
2019-01-04T02:16:54.367Z,-0.23
2019-01-04T02:19:22.949Z,-0.27
2019-01-04T02:21:51.512Z,-0.24
2019-01-04T02:24:22.818Z,-0.22
2019-01-04T02:26:51.375Z,-0.30
2019-01-04T02:29:22.985Z,-0.38
2019-01-04T02:31:51.557Z,-0.53
2019-01-04T02:34:23.154Z,-0.51
2019-01-04T02:36:51.704Z,-0.58
2019-01-04T02:39:20.269Z,-0.44
2019-01-04T02:41:50.392Z,-0.57
2019-01-04T02:44:20.475Z,-0.55
2019-01-04T02:46:50.545Z,-0.45
2019-01-04T02:49:22.098Z,-0.54
2019-01-04T02:51:50.639Z,-0.45
2019-01-04T02:54:22.158Z,-0.43
2019-01-04T02:56:53.865Z,-0.37
2019-01-04T02:59:22.851Z,-0.45
2019-01-04T03:01:51.423Z,-0.41
2019-01-04T03:04:23.198Z,-0.38
2019-01-04T03:06:51.837Z,-0.29
2019-01-04T03:09:20.402Z,-0.29
2019-01-04T03:11:50.479Z,-0.26
2019-01-04T03:14:20.543Z,-0.31
2019-01-04T03:16:49.632Z,-0.29
2019-01-04T03:19:18.196Z,-0.21
2019-01-04T03:21:46.917Z,-0.24
2019-01-04T03:24:15.475Z,-0.24
2019-01-04T03:26:44.038Z,-0.29
2019-01-04T03:29:15.524Z,-0.22
2019-01-04T03:31:44.095Z,-0.15
2019-01-04T03:34:13.001Z,-0.40
2019-01-04T03:36:41.557Z,-0.34
2019-01-04T03:39:10.109Z,-0.26
2019-01-04T03:41:38.657Z,-0.31
2019-01-04T03:44:07.218Z,-0.19
2019-01-04T03:46:35.764Z,-0.11
2019-01-04T03:49:07.575Z,-0.06
2019-01-04T03:51:39.450Z,-0.11
2019-01-04T03:54:08.073Z,-0.20
2019-01-04T03:56:36.636Z,-0.08
2019-01-04T03:59:05.180Z,0.05
2019-01-04T04:01:33.752Z,0.03
2019-01-04T04:04:05.237Z,0.01
2019-01-04T04:06:36.971Z,-0.28
2019-01-04T04:09:06.805Z,-0.17
2019-01-04T04:11:38.347Z,0.02
2019-01-04T04:14:06.895Z,0.09
2019-01-04T04:16:35.451Z,0.04
2019-01-04T04:19:07.160Z,0.06
2019-01-04T04:21:38.455Z,0.13
2019-01-04T04:24:07.023Z,0.08
2019-01-04T04:26:38.607Z,0.06
2019-01-04T04:29:09.930Z,-0.04
2019-01-04T04:31:41.457Z,-0.07
2019-01-04T04:34:12.932Z,-0.18
2019-01-04T04:36:44.230Z,-0.12
2019-01-04T04:39:13.133Z,0.06
2019-01-04T04:41:44.344Z,0.01
2019-01-04T04:44:12.917Z,0.04
2019-01-04T04:46:41.473Z,0.02
2019-01-04T04:49:12.724Z,0.00
2019-01-04T04:51:44.012Z,0.08
2019-01-04T04:54:12.569Z,0.07
2019-01-04T04:56:41.110Z,0.17
2019-01-04T04:59:09.700Z,0.20
2019-01-04T05:01:41.323Z,0.17
2019-01-04T05:04:12.733Z,0.09
2019-01-04T05:06:44.044Z,0.16
2019-01-04T05:09:15.633Z,0.13
2019-01-04T05:11:48.271Z,0.15
2019-01-04T05:14:18.015Z,0.15
2019-01-04T05:16:49.248Z,0.25
2019-01-04T05:19:20.605Z,0.31
2019-01-04T05:21:52.016Z,0.22
2019-01-04T05:24:20.616Z,0.19
2019-01-04T05:26:51.983Z,0.28
2019-01-04T05:29:23.623Z,0.28
2019-01-04T05:31:55.162Z,0.27
2019-01-04T05:34:26.658Z,0.31
2019-01-04T05:36:55.613Z,0.31
2019-01-04T05:39:24.332Z,0.27
2019-01-04T05:41:52.922Z,0.14
2019-01-04T05:44:24.520Z,0.17
2019-01-04T05:46:53.079Z,0.22
2019-01-04T05:49:21.637Z,0.09
2019-01-04T05:51:50.201Z,0.20
2019-01-04T05:54:21.798Z,0.18
2019-01-04T05:56:50.805Z,0.26
2019-01-04T05:59:22.522Z,0.31
2019-01-04T06:01:51.075Z,0.26
2019-01-04T06:04:20.053Z,0.28
2019-01-04T06:06:55.311Z,0.25
2019-01-04T06:09:26.542Z,0.20
2019-01-04T06:11:58.127Z,0.18
2019-01-04T06:14:29.944Z,0.18
2019-01-04T06:16:58.502Z,0.08
2019-01-04T06:19:29.847Z,0.12
2019-01-04T06:21:58.415Z,0.15
2019-01-04T06:24:27.015Z,0.21
2019-01-04T06:26:58.635Z,0.31
2019-01-04T06:29:30.150Z,0.24
2019-01-04T06:32:01.919Z,0.08
2019-01-04T06:34:33.363Z,0.18
2019-01-04T06:37:05.051Z,0.22
2019-01-04T06:39:33.606Z,0.29
2019-01-04T06:42:02.747Z,0.34
2019-01-04T06:44:34.326Z,0.32
2019-01-04T06:47:11.408Z,0.45
2019-01-04T06:49:39.969Z,0.39
2019-01-04T06:52:08.536Z,0.46
2019-01-04T06:55:13.238Z,0.47
2019-01-04T06:57:42.010Z,0.44
2019-01-04T07:00:11.851Z,0.55
2019-01-04T07:02:40.595Z,0.58
2019-01-04T07:05:09.430Z,0.66
2019-01-04T07:07:38.057Z,0.73
2019-01-04T07:10:08.302Z,0.68
2019-01-04T07:12:36.854Z,0.60
2019-01-04T07:15:06.781Z,0.68
2019-01-04T07:17:35.512Z,0.73
2019-01-04T07:20:05.046Z,0.74
2019-01-04T07:22:33.606Z,0.71
2019-01-04T07:25:02.568Z,0.68
2019-01-04T07:27:31.119Z,0.64
2019-01-04T07:29:59.677Z,0.61
2019-01-04T07:32:30.940Z,0.74
2019-01-04T07:34:59.524Z,0.54
2019-01-04T07:37:30.762Z,0.57
2019-01-04T07:40:02.267Z,0.65
2019-01-04T07:42:33.502Z,0.70
2019-01-04T07:45:02.076Z,0.68
2019-01-04T07:47:33.617Z,0.64
2019-01-04T07:50:02.183Z,0.65
2019-01-04T07:52:30.758Z,0.68
2019-01-04T07:54:59.370Z,0.60
2019-01-04T07:57:27.920Z,0.59
2019-01-04T07:59:56.582Z,0.79
2019-01-04T08:02:48.953Z,0.82
2019-01-04T08:05:19.049Z,0.92
2019-01-04T08:07:48.558Z,0.91
2019-01-04T08:10:17.113Z,0.82
2019-01-04T08:12:48.435Z,0.88
2019-01-04T08:15:16.998Z,0.91
2019-01-04T08:17:45.562Z,0.85
2019-01-04T08:20:14.494Z,0.80
2019-01-04T08:22:43.087Z,0.91
2019-01-04T08:25:14.799Z,0.94
2019-01-04T08:27:44.047Z,1.06
2019-01-04T08:30:16.124Z,0.94
2019-01-04T08:32:45.034Z,1.02
2019-01-04T08:35:16.338Z,0.94
2019-01-04T08:37:44.892Z,1.00
2019-01-04T08:40:16.388Z,0.94
2019-01-04T08:42:44.942Z,1.02
2019-01-04T08:45:13.576Z,0.97
2019-01-04T08:47:42.140Z,0.94
2019-01-04T08:50:10.798Z,0.98
2019-01-04T08:52:39.356Z,0.72
2019-01-04T08:55:11.051Z,0.81
2019-01-04T08:57:42.575Z,0.73
2019-01-04T09:00:15.450Z,0.83
2019-01-04T09:02:44.001Z,0.94
2019-01-04T09:05:12.554Z,0.87
2019-01-04T09:07:43.895Z,1.03
2019-01-04T09:10:15.403Z,1.06
2019-01-04T09:12:43.956Z,1.04
2019-01-04T09:15:12.513Z,1.07
2019-01-04T09:17:41.229Z,0.97
2019-01-04T09:20:10.527Z,1.01
2019-01-04T09:22:39.157Z,0.88
2019-01-04T09:25:08.742Z,0.97
2019-01-04T09:27:37.308Z,0.98
2019-01-04T09:30:08.604Z,0.97
2019-01-04T09:32:37.231Z,1.02
2019-01-04T09:35:06.714Z,0.96
2019-01-04T09:37:35.293Z,1.08
2019-01-04T09:40:05.328Z,1.12
2019-01-04T09:42:36.651Z,1.07
2019-01-04T09:45:07.245Z,1.22
2019-01-04T09:47:38.516Z,1.21
2019-01-04T09:50:10.356Z,1.29
2019-01-04T09:52:41.948Z,1.28
2019-01-04T09:55:10.572Z,1.27
2019-01-04T09:57:42.109Z,1.28
2019-01-04T10:00:11.617Z,1.22
2019-01-04T10:02:40.177Z,1.15
2019-01-04T10:05:08.999Z,1.21
2019-01-04T10:07:37.631Z,1.24
2019-01-04T10:10:10.623Z,1.37
2019-01-04T10:12:42.112Z,1.37
2019-01-04T10:15:13.320Z,1.30
2019-01-04T10:17:44.566Z,1.41
2019-01-04T10:20:13.495Z,1.31
2019-01-04T10:22:45.319Z,1.43
2019-01-04T10:25:16.657Z,1.44
2019-01-04T10:27:45.740Z,1.48
2019-01-04T10:30:26.658Z,1.52
2019-01-04T10:32:55.420Z,1.56
2019-01-04T10:35:24.314Z,1.63
2019-01-04T10:37:52.871Z,1.56
2019-01-04T10:40:21.432Z,1.53
2019-01-04T10:42:52.950Z,1.49
2019-01-04T10:45:21.522Z,1.50
2019-01-04T10:47:53.097Z,1.53
2019-01-04T10:50:21.761Z,1.58
2019-01-04T10:52:53.140Z,1.67
2019-01-04T10:55:24.638Z,1.67
2019-01-04T10:57:53.203Z,1.85
2019-01-04T11:00:21.830Z,1.90
2019-01-04T11:02:50.379Z,1.98
2019-01-04T11:05:20.617Z,1.87
2019-01-04T11:07:51.941Z,2.05
2019-01-04T11:10:20.501Z,2.03
2019-01-04T11:12:50.572Z,1.98
2019-01-04T11:15:22.057Z,2.05
2019-01-04T11:17:50.623Z,2.05
2019-01-04T11:20:37.411Z,1.99
2019-01-04T11:23:09.031Z,2.02
2019-01-04T11:25:59.681Z,2.01
2019-01-04T11:28:40.853Z,2.03
2019-01-04T11:31:45.840Z,1.98
2019-01-04T11:34:40.602Z,1.99
2019-01-04T11:37:14.791Z,2.02
2019-01-04T11:40:05.404Z,2.02
2019-01-04T11:42:55.178Z,2.06
2019-01-04T11:45:32.479Z,2.14
2019-01-04T11:48:09.831Z,2.16
2019-01-04T11:50:49.295Z,2.24
2019-01-04T11:53:19.673Z,2.25
2019-01-04T11:55:48.305Z,2.21
2019-01-04T11:58:17.027Z,2.31
2019-01-04T12:00:45.642Z,2.30
2019-01-04T12:03:14.239Z,2.36
2019-01-04T12:05:45.848Z,2.27
2019-01-04T12:08:14.397Z,2.39
2019-01-04T12:10:46.240Z,2.36
2019-01-04T12:13:14.859Z,2.47
2019-01-04T12:15:46.129Z,2.58
2019-01-04T12:18:14.684Z,2.39
2019-01-04T12:20:45.527Z,2.51
2019-01-04T12:23:13.568Z,2.42
2019-01-04T12:25:42.130Z,2.41
2019-01-04T12:28:10.733Z,2.48
2019-01-04T12:30:42.219Z,2.41
2019-01-04T12:33:13.785Z,2.45
2019-01-04T12:35:42.348Z,2.42
2019-01-04T12:38:10.970Z,2.37
2019-01-04T12:40:39.585Z,2.39
2019-01-04T12:43:08.155Z,2.40
2019-01-04T12:45:36.703Z,2.44
2019-01-04T12:48:05.330Z,2.37
2019-01-04T12:50:36.884Z,2.40
2019-01-04T12:53:05.471Z,2.46
2019-01-04T12:55:34.110Z,2.44
2019-01-04T12:58:02.726Z,2.38
2019-01-04T13:00:31.290Z,2.42
2019-01-04T13:02:59.850Z,2.49
2019-01-04T13:05:28.406Z,2.55
2019-01-04T13:07:57.319Z,2.44
2019-01-04T13:10:29.713Z,2.52
2019-01-04T13:12:58.651Z,2.59
2019-01-04T13:15:30.237Z,2.57
2019-01-04T13:17:59.197Z,2.66
2019-01-04T13:20:30.429Z,2.56
2019-01-04T13:23:02.097Z,2.58
2019-01-04T13:25:30.651Z,2.64
2019-01-04T13:28:02.228Z,2.65
2019-01-04T13:30:33.760Z,2.68
2019-01-04T13:33:02.317Z,2.64
2019-01-04T13:35:33.553Z,2.68
2019-01-04T13:38:04.873Z,2.66
2019-01-04T13:40:38.031Z,2.63
2019-01-04T13:43:09.791Z,2.68
2019-01-04T13:45:38.397Z,2.60
2019-01-04T13:48:10.571Z,2.63
2019-01-04T13:50:39.133Z,2.60
2019-01-04T13:53:08.104Z,2.65
2019-01-04T13:55:36.688Z,2.62
2019-01-04T13:58:05.257Z,2.56
2019-01-04T14:00:36.758Z,2.67
2019-01-04T14:03:05.318Z,2.62
2019-01-04T14:05:33.942Z,2.67
2019-01-04T14:08:02.499Z,2.66
2019-01-04T14:10:34.256Z,2.66
2019-01-04T14:13:09.113Z,2.63
2019-01-04T14:15:35.802Z,2.57
2019-01-04T14:18:04.763Z,2.70
2019-01-04T14:20:33.354Z,2.68
2019-01-04T14:23:04.684Z,2.73
2019-01-04T14:25:36.424Z,2.66
2019-01-04T14:28:07.744Z,2.68
2019-01-04T14:30:36.356Z,2.70
2019-01-04T14:33:04.987Z,2.71
2019-01-04T14:35:33.951Z,2.83
2019-01-04T14:38:02.505Z,2.80
2019-01-04T14:40:31.063Z,2.73
2019-01-04T14:42:59.627Z,2.74
2019-01-04T14:45:28.208Z,2.71
2019-01-04T14:47:56.763Z,2.71
2019-01-04T14:50:28.729Z,2.79
2019-01-04T14:52:57.292Z,2.69
2019-01-04T14:55:25.838Z,2.73
2019-01-04T14:57:57.264Z,2.77
2019-01-04T15:00:25.820Z,2.77
2019-01-04T15:02:54.368Z,2.78
2019-01-04T15:05:22.929Z,2.86
2019-01-04T15:07:51.490Z,2.82
2019-01-04T15:10:21.027Z,2.80
2019-01-04T15:12:51.114Z,2.74
2019-01-04T15:15:21.222Z,2.76
2019-01-04T15:17:51.717Z,2.82
2019-01-04T15:20:20.272Z,2.71
2019-01-04T15:22:48.857Z,2.70
2019-01-04T15:25:17.875Z,2.81
2019-01-04T15:27:49.356Z,2.77
2019-01-04T15:30:19.940Z,2.69
2019-01-04T15:32:51.489Z,2.77
2019-01-04T15:35:20.038Z,2.79
2019-01-04T15:37:48.632Z,2.81
2019-01-04T15:40:19.712Z,2.91
2019-01-04T15:42:48.351Z,2.83
2019-01-04T15:45:17.042Z,2.87
2019-01-04T15:47:45.563Z,2.91
2019-01-04T15:50:14.144Z,2.86
2019-01-04T15:52:42.689Z,2.95
2019-01-04T15:55:11.244Z,2.93
2019-01-04T15:57:42.510Z,2.94
2019-01-04T16:00:15.266Z,2.89
2019-01-04T16:02:43.808Z,2.92
2019-01-04T16:05:12.368Z,3.01
2019-01-04T16:07:41.340Z,3.05
2019-01-04T16:10:10.426Z,2.97
2019-01-04T16:12:38.986Z,3.01
2019-01-04T16:15:09.823Z,2.99
2019-01-04T16:17:38.379Z,2.96
2019-01-04T16:20:09.659Z,2.95
2019-01-04T16:22:38.220Z,2.93
2019-01-04T16:25:07.812Z,2.99
2019-01-04T16:27:36.363Z,3.13
2019-01-04T16:30:07.432Z,3.10
2019-01-04T16:32:35.986Z,3.12
2019-01-04T16:35:05.197Z,3.12
2019-01-04T16:37:33.769Z,3.18
2019-01-04T16:40:02.369Z,3.21
2019-01-04T16:42:30.970Z,3.17
2019-01-04T16:45:02.528Z,3.22
2019-01-04T16:47:31.098Z,3.29
2019-01-04T16:49:59.803Z,3.21
2019-01-04T16:52:28.421Z,3.17
2019-01-04T16:54:57.787Z,3.24
2019-01-04T16:57:26.341Z,3.21
2019-01-04T16:59:54.903Z,3.28
2019-01-04T17:02:23.499Z,3.22
2019-01-04T17:04:55.038Z,3.26
2019-01-04T17:07:23.590Z,3.40
2019-01-04T17:09:52.465Z,3.37
2019-01-04T17:12:21.035Z,3.28
2019-01-04T17:14:49.582Z,3.28
2019-01-04T17:17:19.773Z,3.28
2019-01-04T17:19:48.411Z,3.31
2019-01-04T17:22:17.066Z,3.38
2019-01-04T17:24:45.593Z,3.37
2019-01-04T17:27:14.147Z,3.36
2019-01-04T17:29:42.712Z,3.40
2019-01-04T17:32:11.299Z,3.37
2019-01-04T17:34:40.265Z,3.35
2019-01-04T17:37:08.817Z,3.34
2019-01-04T17:39:37.405Z,3.35
2019-01-04T17:42:06.423Z,3.42
2019-01-04T17:44:35.033Z,3.36
2019-01-04T17:47:03.664Z,3.43
2019-01-04T17:49:32.209Z,3.41
2019-01-04T17:52:00.975Z,3.42
2019-01-04T17:54:29.549Z,3.44
2019-01-04T17:56:58.128Z,3.45
2019-01-04T17:59:26.680Z,3.45
2019-01-04T18:01:58.186Z,3.49
2019-01-04T18:04:26.728Z,3.51
2019-01-04T18:06:57.412Z,3.55
2019-01-04T18:09:25.565Z,3.50
2019-01-04T18:11:54.520Z,3.42
2019-01-04T18:14:23.083Z,3.42
2019-01-04T18:16:51.636Z,3.47
2019-01-04T18:19:20.187Z,3.60
2019-01-04T18:21:48.769Z,3.58
2019-01-04T18:24:19.404Z,3.62
2019-01-04T18:26:49.601Z,3.54
2019-01-04T18:29:18.232Z,3.53
2019-01-04T18:31:48.084Z,3.66
2019-01-04T18:34:16.619Z,3.64
2019-01-04T18:36:45.505Z,3.67
2019-01-04T18:39:14.090Z,3.58
2019-01-04T18:41:42.636Z,3.60
2019-01-04T18:44:14.365Z,3.66
2019-01-04T18:46:42.931Z,3.57
2019-01-04T18:49:11.481Z,3.56
2019-01-04T18:51:40.075Z,3.58
2019-01-04T18:54:08.622Z,3.68
2019-01-04T18:56:37.175Z,3.73
2019-01-04T18:59:05.791Z,3.72
2019-01-04T19:01:34.342Z,3.73
2019-01-04T19:04:02.895Z,3.67
2019-01-04T19:06:31.790Z,3.73
2019-01-04T19:09:00.336Z,3.80
2019-01-04T19:11:28.936Z,3.70
2019-01-04T19:13:57.494Z,3.70
2019-01-04T19:16:26.379Z,3.71
2019-01-04T19:18:54.942Z,3.73
2019-01-04T19:21:23.881Z,3.73
2019-01-04T19:23:52.438Z,3.62
2019-01-04T19:26:20.991Z,3.66
2019-01-04T19:28:49.573Z,3.67
2019-01-04T19:31:18.246Z,3.65
2019-01-04T19:33:48.795Z,3.71
2019-01-04T19:36:17.167Z,3.60
2019-01-04T19:38:50.867Z,3.57
2019-01-04T19:41:19.465Z,3.55
2019-01-04T19:43:51.147Z,3.65
2019-01-04T19:46:21.245Z,3.59
2019-01-04T19:48:51.655Z,3.61
2019-01-04T19:51:20.204Z,3.61
2019-01-04T19:53:48.765Z,3.75
2019-01-04T19:56:19.550Z,3.61
2019-01-04T19:58:48.111Z,3.72
2019-01-04T20:01:18.059Z,3.68
2019-01-04T20:03:46.605Z,3.51
2019-01-04T20:06:41.186Z,3.68
2019-01-04T20:09:46.480Z,3.73
2019-01-04T20:12:53.074Z,3.71
2019-01-04T20:15:58.534Z,3.71
2019-01-04T20:18:41.548Z,3.75
2019-01-04T20:21:19.361Z,3.75
2019-01-04T20:24:01.249Z,3.83
2019-01-04T20:26:48.090Z,3.66
2019-01-04T20:29:21.263Z,3.71
2019-01-04T20:31:52.366Z,3.66
2019-01-04T20:34:31.792Z,3.64
2019-01-04T20:37:10.667Z,3.72
2019-01-04T20:39:40.865Z,3.71
2019-01-04T20:42:27.566Z,3.71
2019-01-04T20:45:07.005Z,3.79
2019-01-04T20:47:57.437Z,3.74
2019-01-04T20:53:28.155Z,3.77
2019-01-04T20:56:07.687Z,3.81
2019-01-04T20:58:55.881Z,3.87
2019-01-04T21:01:29.213Z,3.87
2019-01-04T21:03:59.412Z,3.86
2019-01-04T21:06:44.735Z,3.86
2019-01-04T21:09:20.483Z,3.95
2019-01-04T21:11:52.185Z,3.96
2019-01-04T21:14:24.873Z,4.00
2019-01-04T21:16:57.757Z,3.92
2019-01-04T21:19:30.703Z,3.92
2019-01-04T21:22:09.814Z,3.90
2019-01-04T21:24:52.915Z,3.98
2019-01-04T21:30:23.654Z,4.00
2019-01-04T21:33:13.453Z,4.04
2019-01-04T21:35:48.207Z,4.18
2019-01-04T21:38:18.415Z,4.14
2019-01-04T21:40:51.374Z,4.14
2019-01-04T21:43:24.734Z,4.15
2019-01-04T21:46:11.398Z,4.16
2019-01-04T21:48:44.635Z,4.30
2019-01-04T21:51:14.839Z,4.30
2019-01-04T21:53:49.013Z,4.27
2019-01-04T21:56:19.534Z,4.39
2019-01-04T21:59:06.272Z,4.42
2019-01-04T22:01:53.029Z,4.43
2019-01-04T22:04:39.640Z,4.48
2019-01-04T22:07:12.513Z,4.48
2019-01-04T22:09:45.507Z,4.51
2019-01-04T22:12:15.701Z,4.51
2019-01-04T22:15:02.373Z,4.43
2019-01-04T22:17:44.612Z,4.39
2019-01-04T22:20:17.220Z,4.33
2019-01-04T22:23:03.551Z,4.42
2019-01-04T22:25:45.360Z,4.46
2019-01-04T22:28:27.333Z,4.46
2019-01-04T22:31:09.851Z,4.59
2019-01-04T22:33:45.804Z,4.55
2019-01-04T22:36:32.283Z,4.58
2019-01-04T22:39:18.580Z,4.60
2019-01-04T22:42:05.067Z,4.65
2019-01-04T22:44:51.433Z,4.63
2019-01-04T22:47:27.916Z,4.56
2019-01-04T22:50:20.960Z,4.52
2019-01-04T22:52:55.397Z,4.52
2019-01-04T22:55:25.638Z,4.58
2019-01-04T22:58:04.622Z,4.58
2019-01-04T23:00:50.884Z,4.62
2019-01-04T23:03:30.035Z,4.65
2019-01-04T23:06:03.233Z,4.69
2019-01-04T23:08:42.257Z,4.69
2019-01-04T23:11:24.127Z,4.69
2019-01-04T23:13:54.664Z,4.67
2019-01-04T23:16:28.096Z,4.70
2019-01-04T23:19:07.006Z,4.76
2019-01-04T23:22:00.115Z,4.76
2019-01-04T23:24:30.577Z,4.81
2019-01-04T23:27:01.221Z,4.78
2019-01-04T23:29:36.764Z,4.69
2019-01-04T23:32:12.661Z,4.81
2019-01-04T23:34:48.554Z,4.81
2019-01-04T23:37:37.296Z,4.69
2019-01-04T23:40:19.095Z,4.74
2019-01-04T23:42:52.306Z,4.77
2019-01-04T23:45:39.137Z,4.67
2019-01-04T23:48:28.705Z,4.75
2019-01-04T23:51:05.029Z,4.77
2019-01-04T23:53:35.260Z,4.77
2019-01-04T23:56:19.369Z,4.85
2019-01-04T23:58:52.360Z,4.91
